Impacts TAF Board
For situational awareness. Not to be used for flight planning purposes.
IDs:

KMRB - Martinsburg/E West V, WV, US

Issued at 0520 UTC 11 May 2021
Updated at 1033 UTC 11 May 2021
Potential Impact None Slight Moderate High
Time0953Z 11/11Z 11/12Z 11/13Z 11/14Z 11/15Z 11/16Z 11/17Z 11/18Z 11/19Z 11/20Z 11/21Z 11/22Z 11/23Z>>
Type OBS PRVL PRVL PRVL PRVL PRVL PRVL PRVL PRVL PRVL PRVL PRVL PRVL PRVL
VIS 10 >6 >6 >6 >6 >6 >6 >6 >6 >6 >6 >6 >6 >6
CIG -- -- -- -- -- -- -- 60 60 60 60 60 60 60
Cover CLR SCT SCT SCT SCT SCT SCT BKN BKN BKN BKN BKN BKN BKN
FltCat VFR VFR VFR VFR VFR VFR VFR VFR VFR VFR VFR VFR VFR VFR
WX -- -- -- -- -- -- -- -- -- -- -- -- -- --
WDir VRB VRB VRB VRB VRB 280 280 300 300 300 300 300 300 300
WSpd 0 3 3 3 3 7 7 11 11 11 11 11 11 11
WGst -- -- -- -- -- -- -- 23 23 23 23 23 23 23
Raw TAF
KMRB 110520Z 1106/1206 30004KT P6SM BKN250
  FM110900 VRB03KT P6SM SCT250
  FM111500 28007KT P6SM SCT150
  FM111700 30011G23KT P6SM BKN060
  FM120000 33009KT P6SM SCT200


Raw METAR
KMRB 110953Z AUTO 00000KT 10SM CLR 05/03 A3009 RMK AO2 SLP189 T00500028
KMRB 110853Z AUTO 00000KT 10SM CLR 07/03 A3008 RMK AO2 SLP187 T00720033 53002
KMRB 110753Z AUTO 00000KT 10SM CLR 09/03 A3008 RMK AO2 SLP186 T00890033

METAR Board
Radar Display
Forecast Discussion
For situational awareness. Not to be used for flight planning purposes.